Time;durP1;ratioP1;P1;durP2;ratioP2;P2;SDS_P1;SDS_P2;PMS_P1;PMS_P2;Temp;Humidity;BMP_temperature;BMP_pressure;BME280_temperature;BME280_humidity;BME280_pressure;Samples;Min_cycle;Max_cycle;Signal;HPM_P1;HPM_P2
2021/11/14 00:00:03;;;;;;;8.50;5.75;;;25.40;38.00;;;;;;5064888;28;20419;-75
2021/11/14 00:02:29;;;;;;;8.18;5.40;;;25.30;37.80;;;;;;5064795;28;20394;-73
2021/11/14 00:04:56;;;;;;;8.65;5.60;;;25.30;37.90;;;;;;5063723;28;20388;-73
2021/11/14 00:07:23;;;;;;;8.27;5.60;;;25.30;37.90;;;;;;5061639;28;20458;-71
2021/11/14 00:09:50;;;;;;;8.73;5.60;;;25.30;37.90;;;;;;5064336;28;20494;-72
2021/11/14 00:12:16;;;;;;;8.50;5.38;;;25.30;37.90;;;;;;5064002;28;20411;-76
2021/11/14 00:14:43;;;;;;;8.57;5.50;;;25.30;37.70;;;;;;5064616;28;20428;-74
2021/11/14 00:17:09;;;;;;;7.97;5.50;;;25.30;37.80;;;;;;5062630;28;20395;-74
2021/11/14 00:19:35;;;;;;;8.30;5.60;;;25.30;37.60;;;;;;5062001;28;20487;-74
2021/11/14 00:22:01;;;;;;;7.88;5.50;;;25.30;37.50;;;;;;5064069;28;20486;-72
2021/11/14 00:24:28;;;;;;;8.70;5.75;;;25.30;37.70;;;;;;5064793;28;20940;-72
2021/11/14 00:26:54;;;;;;;7.05;5.28;;;25.30;37.80;;;;;;5062591;28;20747;-74
2021/11/14 00:29:20;;;;;;;6.67;5.37;;;25.20;37.50;;;;;;5063784;28;20536;-74
2021/11/14 00:31:46;;;;;;;7.63;5.60;;;25.20;37.70;;;;;;5062588;28;20419;-74
2021/11/14 00:34:12;;;;;;;7.17;5.03;;;25.30;37.50;;;;;;5062044;28;20459;-71
2021/11/14 00:36:40;;;;;;;7.18;4.90;;;25.30;37.30;;;;;;5062586;28;20388;-74
2021/11/14 00:39:09;;;;;;;6.93;5.10;;;25.20;37.50;;;;;;5062458;28;20397;-74
2021/11/14 00:41:35;;;;;;;7.00;4.97;;;25.20;37.60;;;;;;5062430;28;20423;-75
2021/11/14 00:44:02;;;;;;;6.70;4.88;;;25.10;37.60;;;;;;5062967;28;20426;-74
2021/11/14 00:46:27;;;;;;;7.20;5.07;;;25.10;37.70;;;;;;5062997;28;20423;-73
2021/11/14 00:48:53;;;;;;;7.38;5.15;;;25.20;37.40;;;;;;5062561;28;20384;-71
2021/11/14 00:51:28;;;;;;;7.07;5.28;;;25.20;37.10;;;;;;5062294;28;20388;-74
2021/11/14 00:53:57;;;;;;;7.00;5.07;;;25.10;37.40;;;;;;5062713;28;20407;-73
2021/11/14 00:56:23;;;;;;;6.30;4.72;;;25.10;37.60;;;;;;5062600;28;20533;-71
2021/11/14 00:58:50;;;;;;;6.28;4.70;;;25.00;37.70;;;;;;5063203;28;20490;-74
2021/11/14 01:01:16;;;;;;;7.15;5.03;;;25.00;37.70;;;;;;5062099;28;20983;-74
2021/11/14 01:03:42;;;;;;;5.72;4.43;;;25.10;37.40;;;;;;5061323;28;20396;-72
2021/11/14 01:06:07;;;;;;;6.47;4.80;;;25.10;37.10;;;;;;5062795;28;20818;-71
2021/11/14 01:08:33;;;;;;;6.72;4.93;;;25.10;37.50;;;;;;5060763;28;20394;-71
2021/11/14 01:11:02;;;;;;;6.00;4.60;;;25.00;37.60;;;;;;5061931;28;20730;-74
2021/11/14 01:13:29;;;;;;;5.50;4.60;;;25.00;37.70;;;;;;5063477;28;20435;-73
2021/11/14 01:15:56;;;;;;;5.03;4.45;;;24.90;37.70;;;;;;5060500;28;20395;-70
2021/11/14 01:18:23;;;;;;;6.10;4.43;;;25.00;37.60;;;;;;5057224;28;20475;-73
2021/11/14 01:20:51;;;;;;;6.18;4.63;;;25.00;37.40;;;;;;5056020;28;20453;-71
2021/11/14 01:23:19;;;;;;;5.80;4.50;;;24.90;37.30;;;;;;5057423;28;20893;-71
2021/11/14 01:25:45;;;;;;;5.57;4.22;;;24.90;37.60;;;;;;5057404;28;20437;-73
2021/11/14 01:28:11;;;;;;;5.60;4.32;;;24.80;37.70;;;;;;5058319;28;20428;-74
2021/11/14 01:30:40;;;;;;;5.45;4.20;;;24.80;37.60;;;;;;5056783;28;20391;-74
2021/11/14 01:33:08;;;;;;;6.35;4.65;;;24.90;37.50;;;;;;5061543;28;20816;-74
2021/11/14 01:35:35;;;;;;;5.60;4.50;;;24.90;37.50;;;;;;5061918;28;20641;-71
2021/11/14 01:38:01;;;;;;;6.25;4.50;;;24.90;37.30;;;;;;5063047;28;20408;-74
2021/11/14 01:40:50;;;;;;;6.38;4.43;;;24.80;37.60;;;;;;5063178;28;20461;-73
2021/11/14 01:43:24;;;;;;;5.38;4.32;;;24.70;37.70;;;;;;5063660;28;20380;-74
2021/11/14 01:45:50;;;;;;;6.05;4.40;;;24.70;37.70;;;;;;5063500;28;20877;-74
2021/11/14 01:48:16;;;;;;;5.73;4.13;;;24.70;37.60;;;;;;5063268;28;20402;-74
2021/11/14 01:50:42;;;;;;;7.03;4.70;;;24.80;37.60;;;;;;5061791;28;20403;-74
2021/11/14 01:53:09;;;;;;;5.75;4.30;;;24.70;37.30;;;;;;5063059;28;20372;-73
2021/11/14 01:55:41;;;;;;;5.55;4.30;;;24.70;37.70;;;;;;5061829;28;20464;-72
2021/11/14 01:58:07;;;;;;;5.60;4.47;;;24.70;37.80;;;;;;5063196;28;20407;-74
2021/11/14 02:00:39;;;;;;;5.30;4.47;;;24.60;37.70;;;;;;5061953;28;20383;-74
2021/11/14 02:03:05;;;;;;;5.00;4.15;;;24.60;37.70;;;;;;5061694;28;20398;-73
2021/11/14 02:05:33;;;;;;;4.93;4.40;;;24.70;37.70;;;;;;5062958;28;20395;-74
2021/11/14 02:08:01;;;;;;;6.07;4.20;;;24.60;37.60;;;;;;5062359;28;20383;-74
2021/11/14 02:10:29;;;;;;;6.03;4.50;;;24.60;38.20;;;;;;5061778;28;20401;-73
2021/11/14 02:12:55;;;;;;;5.55;4.28;;;24.50;37.90;;;;;;5061812;28;20452;-74
2021/11/14 02:15:21;;;;;;;5.70;4.00;;;24.50;37.90;;;;;;5061734;28;20503;-74
2021/11/14 02:17:47;;;;;;;5.77;4.00;;;24.50;37.80;;;;;;5061644;28;20467;-71
2021/11/14 02:20:14;;;;;;;5.72;4.30;;;24.60;37.80;;;;;;5061539;28;20456;-74
2021/11/14 02:22:40;;;;;;;5.22;4.40;;;24.60;38.50;;;;;;5062599;28;20399;-74
2021/11/14 02:25:09;;;;;;;4.60;3.70;;;24.50;37.90;;;;;;5061908;28;20388;-74
2021/11/14 02:27:35;;;;;;;5.38;4.00;;;24.40;38.00;;;;;;5062560;28;20387;-69
2021/11/14 02:30:03;;;;;;;4.60;3.70;;;24.40;38.80;;;;;;5063509;28;20448;-73
2021/11/14 02:32:29;;;;;;;4.85;3.90;;;24.40;37.90;;;;;;5066884;28;21075;-72
2021/11/14 02:34:55;;;;;;;4.53;3.80;;;24.50;38.00;;;;;;5066789;28;20980;-73
2021/11/14 02:37:20;;;;;;;4.70;3.80;;;24.50;37.80;;;;;;5066913;28;20491;-74
2021/11/14 02:39:46;;;;;;;4.17;3.60;;;24.40;37.40;;;;;;5067000;28;20413;-72
2021/11/14 02:42:12;;;;;;;5.55;3.65;;;24.30;37.90;;;;;;5066792;28;20390;-74
2021/11/14 02:44:38;;;;;;;4.47;4.00;;;24.30;38.00;;;;;;5065950;28;20775;-73
2021/11/14 02:47:04;;;;;;;4.30;3.88;;;24.30;38.60;;;;;;5066602;28;20869;-73
2021/11/14 02:49:29;;;;;;;4.43;3.70;;;24.40;38.20;;;;;;5066637;28;20400;-73
2021/11/14 02:51:55;;;;;;;4.35;3.70;;;24.40;38.20;;;;;;5066688;28;20379;-74
2021/11/14 02:54:21;;;;;;;5.23;4.10;;;24.30;37.40;;;;;;5066169;28;20484;-73
2021/11/14 02:56:47;;;;;;;4.50;3.50;;;24.30;37.80;;;;;;5065251;28;20376;-74
2021/11/14 02:59:14;;;;;;;4.75;3.60;;;24.20;38.10;;;;;;5066129;28;20449;-72
2021/11/14 03:01:44;;;;;;;4.50;3.58;;;24.20;38.70;;;;;;5064752;28;20901;-71
2021/11/14 03:04:17;;;;;;;4.13;3.38;;;24.30;38.60;;;;;;5064834;28;20911;-71
2021/11/14 03:06:43;;;;;;;5.25;4.20;;;24.30;38.40;;;;;;5064782;28;20415;-74
2021/11/14 03:09:09;;;;;;;4.05;3.55;;;24.20;37.10;;;;;;5065056;28;20399;-73
2021/11/14 03:11:35;;;;;;;4.43;3.70;;;24.20;37.60;;;;;;5064763;28;20396;-72
2021/11/14 03:14:02;;;;;;;4.47;3.47;;;24.10;37.80;;;;;;5066021;28;20529;-73
2021/11/14 03:16:28;;;;;;;4.93;3.40;;;24.10;38.40;;;;;;5065063;28;20870;-75
2021/11/14 03:18:55;;;;;;;3.90;3.42;;;24.20;38.40;;;;;;5065864;28;20388;-74
2021/11/14 03:21:22;;;;;;;4.82;4.10;;;24.20;38.20;;;;;;5064516;28;20399;-71
2021/11/14 03:23:48;;;;;;;5.20;4.30;;;24.10;37.20;;;;;;5065950;28;20422;-74
2021/11/14 03:26:14;;;;;;;4.63;3.78;;;24.10;37.50;;;;;;5065904;28;21241;-73
2021/11/14 03:28:39;;;;;;;4.60;3.60;;;24.00;37.90;;;;;;5066114;28;20837;-74
2021/11/14 03:31:06;;;;;;;3.83;3.42;;;24.00;38.00;;;;;;5065565;28;20388;-73
2021/11/14 03:33:32;;;;;;;3.90;3.50;;;24.10;38.50;;;;;;5064430;28;20400;-74
2021/11/14 03:36:05;;;;;;;4.40;3.95;;;24.10;38.30;;;;;;5065789;28;20391;-74
2021/11/14 03:38:50;;;;;;;4.22;3.67;;;24.10;37.50;;;;;;5064538;28;20391;-73
2021/11/14 03:41:20;;;;;;;4.57;3.50;;;24.00;37.40;;;;;;5065256;28;20904;-73
2021/11/14 03:43:47;;;;;;;4.00;3.53;;;24.00;37.70;;;;;;5065287;28;20372;-72
2021/11/14 03:46:13;;;;;;;3.90;3.25;;;23.90;37.80;;;;;;5065497;28;20387;-74
2021/11/14 03:48:44;;;;;;;4.63;3.65;;;23.90;37.80;;;;;;5065633;28;20443;-74
2021/11/14 03:51:11;;;;;;;4.87;3.53;;;24.00;38.10;;;;;;5064184;28;20934;-73
2021/11/14 03:53:37;;;;;;;4.40;3.58;;;24.00;37.40;;;;;;5064986;28;20415;-74
2021/11/14 03:56:04;;;;;;;4.00;3.47;;;23.90;37.30;;;;;;5065188;28;20566;-73
2021/11/14 03:58:31;;;;;;;4.00;3.28;;;23.80;37.40;;;;;;5065385;28;20416;-74
2021/11/14 04:00:59;;;;;;;3.95;3.33;;;23.80;37.70;;;;;;5065368;28;20392;-74
2021/11/14 04:03:26;;;;;;;3.60;3.20;;;23.80;37.80;;;;;;5065248;28;20388;-74
2021/11/14 04:05:52;;;;;;;4.00;3.20;;;23.90;38.00;;;;;;5065223;28;20403;-72
2021/11/14 04:08:21;;;;;;;3.58;3.28;;;23.90;37.80;;;;;;5064923;28;20384;-71
2021/11/14 04:10:48;;;;;;;4.18;3.40;;;23.80;37.30;;;;;;5063503;28;20422;-73
2021/11/14 04:13:15;;;;;;;4.10;3.35;;;23.80;37.60;;;;;;5063726;28;20461;-74
2021/11/14 04:15:41;;;;;;;3.70;3.10;;;23.70;38.10;;;;;;5065338;28;20453;-75
2021/11/14 04:18:07;;;;;;;3.80;3.30;;;23.70;37.80;;;;;;5064997;28;20478;-71
2021/11/14 04:20:36;;;;;;;4.20;3.40;;;23.80;37.90;;;;;;5064806;28;20482;-73
2021/11/14 04:23:03;;;;;;;3.97;3.53;;;23.80;37.90;;;;;;5063555;28;20408;-73
2021/11/14 04:25:29;;;;;;;3.72;3.40;;;23.70;37.20;;;;;;5064934;28;21002;-71
2021/11/14 04:27:56;;;;;;;3.78;3.13;;;23.70;37.60;;;;;;5064911;28;20390;-69
2021/11/14 04:30:22;;;;;;;3.35;2.95;;;23.60;37.70;;;;;;5065139;28;20423;-74
2021/11/14 04:32:48;;;;;;;3.97;3.57;;;23.60;37.80;;;;;;5064647;28;20467;-73
2021/11/14 04:35:13;;;;;;;3.58;3.22;;;23.70;37.80;;;;;;5064879;28;20426;-74
2021/11/14 04:37:39;;;;;;;3.80;3.40;;;23.70;37.90;;;;;;5064348;28;20463;-73
2021/11/14 04:40:07;;;;;;;3.73;3.30;;;23.70;37.30;;;;;;5064781;28;20395;-74
2021/11/14 04:42:33;;;;;;;3.53;3.20;;;23.60;37.40;;;;;;5064499;28;20410;-74
2021/11/14 04:44:59;;;;;;;4.00;3.15;;;23.60;37.70;;;;;;5064341;28;20885;-75
2021/11/14 04:47:25;;;;;;;3.80;3.40;;;23.60;38.00;;;;;;5064721;28;20846;-74
2021/11/14 04:49:51;;;;;;;3.78;3.38;;;23.60;38.00;;;;;;5062591;28;20828;-71
2021/11/14 04:52:17;;;;;;;3.97;3.30;;;23.60;38.00;;;;;;5063655;28;20471;-72
2021/11/14 04:54:42;;;;;;;3.90;3.50;;;23.60;37.60;;;;;;5063976;28;20723;-74
2021/11/14 04:57:08;;;;;;;3.58;3.28;;;23.50;37.50;;;;;;5064070;28;20387;-73
2021/11/14 04:59:34;;;;;;;4.60;3.50;;;23.50;37.70;;;;;;5064366;28;20469;-74
2021/11/14 05:01:59;;;;;;;3.72;3.15;;;23.50;38.00;;;;;;5064170;28;20392;-74
2021/11/14 05:04:26;;;;;;;3.87;3.30;;;23.50;38.10;;;;;;5064074;28;20396;-74
2021/11/14 05:06:51;;;;;;;3.58;3.28;;;23.60;38.10;;;;;;5063907;28;20380;-74
2021/11/14 05:09:17;;;;;;;4.20;3.50;;;23.50;37.70;;;;;;5063864;28;20391;-73
2021/11/14 05:11:42;;;;;;;3.72;3.38;;;23.50;37.50;;;;;;5063673;28;20368;-71
2021/11/14 05:14:08;;;;;;;3.33;3.03;;;23.40;37.80;;;;;;5063912;28;20468;-74
2021/11/14 05:16:34;;;;;;;3.67;3.17;;;23.40;38.10;;;;;;5064037;28;20383;-73
2021/11/14 05:18:59;;;;;;;3.63;3.27;;;23.40;38.10;;;;;;5063917;28;20384;-73
2021/11/14 05:21:25;;;;;;;3.33;3.00;;;23.50;38.10;;;;;;5063627;28;20477;-73
2021/11/14 05:23:51;;;;;;;3.95;3.55;;;23.50;38.10;;;;;;5063406;28;21404;-74
2021/11/14 05:26:17;;;;;;;4.00;3.15;;;23.40;37.60;;;;;;5062432;28;20396;-74
2021/11/14 05:28:43;;;;;;;3.40;3.10;;;23.40;37.80;;;;;;5063269;28;20932;-73
2021/11/14 05:31:08;;;;;;;3.50;3.00;;;23.30;38.10;;;;;;5063844;28;20388;-75
2021/11/14 05:33:34;;;;;;;3.37;3.07;;;23.30;38.20;;;;;;5063128;28;20876;-73
2021/11/14 05:36:00;;;;;;;4.20;3.10;;;23.40;38.20;;;;;;5062227;28;20861;-74
2021/11/14 05:38:26;;;;;;;4.00;3.60;;;23.40;38.10;;;;;;5061717;28;20376;-73
2021/11/14 05:40:51;;;;;;;3.95;3.47;;;23.30;37.70;;;;;;5062166;28;20407;-73
2021/11/14 05:43:17;;;;;;;3.50;3.20;;;23.30;37.90;;;;;;5062011;28;20404;-73
2021/11/14 05:45:43;;;;;;;3.78;3.38;;;23.20;38.10;;;;;;5063342;28;20388;-72
2021/11/14 05:48:09;;;;;;;3.40;3.10;;;23.20;38.30;;;;;;5063504;28;20522;-73
2021/11/14 05:50:36;;;;;;;3.47;2.90;;;23.30;38.30;;;;;;5063266;28;20482;-71
2021/11/14 05:53:02;;;;;;;3.40;3.10;;;23.40;38.30;;;;;;5079155;28;20388;-73
2021/11/14 05:55:27;;;;;;;4.05;3.45;;;23.30;37.80;;;;;;5063140;28;20415;-74
2021/11/14 05:57:58;;;;;;;4.30;3.50;;;23.30;37.90;;;;;;5063183;28;20468;-73
2021/11/14 06:00:51;;;;;;;3.90;3.28;;;23.20;38.10;;;;;;5063585;28;20410;-75
2021/11/14 06:03:34;;;;;;;3.28;2.95;;;23.20;38.40;;;;;;5078069;28;20491;-74
2021/11/14 06:06:00;;;;;;;3.20;2.90;;;23.20;38.40;;;;;;5061698;28;20756;-73
2021/11/14 06:08:26;;;;;;;3.47;3.08;;;23.30;38.40;;;;;;5061561;28;20402;-73
2021/11/14 06:10:53;;;;;;;3.60;3.00;;;23.20;38.10;;;;;;5063170;28;20391;-74
2021/11/14 06:13:24;;;;;;;3.72;3.22;;;23.20;38.10;;;;;;5061645;28;20942;-72
2021/11/14 06:15:50;;;;;;;3.20;2.90;;;23.10;38.30;;;;;;5061840;28;20754;-75
2021/11/14 06:18:16;;;;;;;3.65;2.92;;;23.10;38.50;;;;;;5062872;28;20394;-74
2021/11/14 06:20:43;;;;;;;3.00;2.70;;;23.20;38.60;;;;;;5063149;28;20391;-72
2021/11/14 06:23:10;;;;;;;3.65;3.00;;;23.20;38.60;;;;;;5062875;28;20411;-74
2021/11/14 06:25:35;;;;;;;3.47;3.08;;;23.20;38.30;;;;;;5062897;28;20399;-75
2021/11/14 06:28:02;;;;;;;4.18;3.40;;;23.10;38.20;;;;;;5062961;28;20425;-73
2021/11/14 06:30:27;;;;;;;3.33;3.03;;;23.10;38.30;;;;;;5062647;28;20398;-74
2021/11/14 06:32:53;;;;;;;3.58;3.10;;;23.10;38.60;;;;;;5063233;28;20375;-74
2021/11/14 06:35:19;;;;;;;3.10;2.80;;;23.10;38.60;;;;;;5062738;28;20419;-73
2021/11/14 06:37:45;;;;;;;3.35;2.97;;;23.20;38.70;;;;;;5062669;28;20384;-73
2021/11/14 06:40:11;;;;;;;5.00;3.33;;;23.10;38.30;;;;;;5061432;28;20403;-73
2021/11/14 06:42:37;;;;;;;3.70;3.30;;;23.10;38.30;;;;;;5060679;28;20402;-73
2021/11/14 06:45:04;;;;;;;4.65;3.40;;;23.00;38.40;;;;;;5061418;28;20388;-73
2021/11/14 06:47:30;;;;;;;3.60;2.90;;;23.00;38.60;;;;;;5062761;28;20379;-72
2021/11/14 06:49:55;;;;;;;3.40;2.92;;;23.10;38.70;;;;;;5061550;28;20402;-70
2021/11/14 06:52:22;;;;;;;3.40;2.87;;;23.10;38.70;;;;;;5062666;28;20413;-74
2021/11/14 06:54:48;;;;;;;3.42;3.10;;;23.10;38.80;;;;;;5061192;28;20956;-74
2021/11/14 06:57:14;;;;;;;3.50;3.20;;;23.00;38.50;;;;;;5062580;28;20415;-73
2021/11/14 06:59:39;;;;;;;3.30;3.00;;;23.00;38.50;;;;;;5061219;28;20395;-75
2021/11/14 07:02:09;;;;;;;3.50;3.10;;;22.90;38.70;;;;;;5062580;28;20387;-75
2021/11/14 07:04:35;;;;;;;3.60;3.20;;;23.00;38.90;;;;;;5062380;28;20528;-71
2021/11/14 07:07:02;;;;;;;3.65;2.80;;;23.00;38.80;;;;;;5061245;28;20387;-74
2021/11/14 07:09:28;;;;;;;3.63;3.30;;;23.00;38.70;;;;;;5061031;28;20390;-76
2021/11/14 07:11:54;;;;;;;3.80;3.35;;;23.00;38.60;;;;;;5062625;28;20387;-72
2021/11/14 07:14:24;;;;;;;5.15;3.95;;;22.90;39.60;;;;;;5060708;28;20403;-73
2021/11/14 07:16:51;;;;;;;5.97;4.30;;;22.80;39.50;;;;;;5065416;28;20426;-72
2021/11/14 07:19:17;;;;;;;4.75;3.72;;;22.90;39.90;;;;;;5066138;28;20384;-70
2021/11/14 07:21:43;;;;;;;7.03;3.80;;;22.80;40.00;;;;;;5065603;28;20723;-72
2021/11/14 07:24:09;;;;;;;4.93;3.75;;;22.90;39.90;;;;;;5065678;28;20400;-71
2021/11/14 07:26:35;;;;;;;6.97;4.07;;;22.90;41.00;;;;;;5064582;28;20395;-73
2021/11/14 07:29:01;;;;;;;5.40;3.72;;;22.80;40.30;;;;;;5064195;28;20663;-73
2021/11/14 07:31:27;;;;;;;6.77;3.97;;;22.70;40.50;;;;;;5065904;28;20528;-71
2021/11/14 07:33:52;;;;;;;4.63;3.58;;;22.70;40.60;;;;;;5065427;28;20451;-72
2021/11/14 07:36:18;;;;;;;5.03;3.37;;;22.70;41.40;;;;;;5065674;28;20919;-70
2021/11/14 07:38:44;;;;;;;5.55;3.70;;;22.80;40.50;;;;;;5064122;28;20889;-71
2021/11/14 07:41:09;;;;;;;5.78;3.58;;;22.70;40.50;;;;;;5064381;28;20384;-72
2021/11/14 07:43:36;;;;;;;4.47;3.60;;;22.70;40.80;;;;;;5065165;28;20399;-72
2021/11/14 07:46:02;;;;;;;6.38;3.83;;;22.60;40.90;;;;;;5064066;28;20865;-72
2021/11/14 07:48:28;;;;;;;4.80;3.55;;;22.60;41.00;;;;;;5064423;28;20404;-73
2021/11/14 07:50:54;;;;;;;6.35;4.05;;;22.70;41.20;;;;;;5064011;28;20456;-73
2021/11/14 07:53:21;;;;;;;5.25;3.80;;;22.80;40.80;;;;;;5065327;28;20945;-71
2021/11/14 07:55:47;;;;;;;6.60;4.20;;;22.70;40.60;;;;;;5063927;28;20476;-73
2021/11/14 07:58:13;;;;;;;6.40;3.83;;;22.70;40.80;;;;;;5066278;28;20372;-74
2021/11/14 08:00:39;;;;;;;6.30;3.80;;;22.60;41.10;;;;;;5065137;28;20400;-72
2021/11/14 08:03:05;;;;;;;6.35;3.83;;;22.60;42.10;;;;;;5064938;28;21320;-71
2021/11/14 08:05:32;;;;;;;8.18;3.83;;;22.60;42.40;;;;;;5065235;28;20388;-72
2021/11/14 08:07:58;;;;;;;7.32;4.20;;;22.70;41.90;;;;;;5063523;28;20391;-72
2021/11/14 08:10:24;;;;;;;7.95;4.03;;;22.70;41.60;;;;;;5065112;28;20394;-72
2021/11/14 08:12:50;;;;;;;5.70;3.70;;;22.60;41.40;;;;;;5065003;28;20391;-72
2021/11/14 08:15:17;;;;;;;4.28;3.40;;;22.60;41.70;;;;;;5064613;28;20423;-72
2021/11/14 08:17:44;;;;;;;5.20;3.77;;;22.50;41.70;;;;;;5063601;28;20521;-73
2021/11/14 08:20:10;;;;;;;5.40;3.50;;;22.50;41.60;;;;;;5064830;28;20388;-73
2021/11/14 08:22:37;;;;;;;4.97;4.00;;;22.60;41.50;;;;;;5064544;28;20408;-71
2021/11/14 08:25:05;;;;;;;5.22;3.65;;;22.60;41.40;;;;;;5064670;28;20497;-71
2021/11/14 08:27:32;;;;;;;5.88;3.90;;;22.50;41.40;;;;;;5062866;28;20391;-74
2021/11/14 08:29:59;;;;;;;6.70;3.70;;;22.50;42.00;;;;;;5064553;28;20392;-72
2021/11/14 08:32:25;;;;;;;8.50;4.47;;;22.50;41.90;;;;;;5063889;28;20406;-76
2021/11/14 08:34:51;;;;;;;7.30;5.05;;;22.50;42.30;;;;;;5064228;28;20415;-75
2021/11/14 08:37:16;;;;;;;8.13;5.73;;;22.60;42.80;;;;;;5064555;28;20461;-74
2021/11/14 08:39:42;;;;;;;7.38;4.82;;;22.60;43.20;;;;;;5063053;28;20437;-75
2021/11/14 08:42:09;;;;;;;8.60;4.33;;;22.60;42.80;;;;;;5062819;28;20439;-74
2021/11/14 08:44:35;;;;;;;9.15;4.30;;;22.60;43.00;;;;;;5064683;28;20391;-75
2021/11/14 08:47:00;;;;;;;8.05;4.75;;;22.50;43.60;;;;;;5064807;28;20494;-75
2021/11/14 08:49:26;;;;;;;7.07;4.20;;;22.50;43.10;;;;;;5063766;28;20963;-74
2021/11/14 08:51:52;;;;;;;6.95;3.92;;;22.50;43.00;;;;;;5063173;28;20380;-74
2021/11/14 08:54:19;;;;;;;7.53;4.20;;;22.50;42.50;;;;;;5064065;28;20534;-74
2021/11/14 08:56:45;;;;;;;6.07;4.72;;;22.50;42.40;;;;;;5063143;28;20897;-74
2021/11/14 08:59:11;;;;;;;8.80;5.07;;;22.50;42.60;;;;;;5062983;28;20403;-74
2021/11/14 09:01:37;;;;;;;7.65;4.65;;;22.50;43.40;;;;;;5063187;28;20451;-71
2021/11/14 09:04:05;;;;;;;5.50;3.95;;;22.40;44.00;;;;;;5062727;28;20384;-75
2021/11/14 09:06:31;;;;;;;6.95;4.05;;;22.50;43.70;;;;;;5062375;28;20399;-74
2021/11/14 09:08:57;;;;;;;6.07;4.55;;;22.50;43.70;;;;;;5062714;28;20411;-72
2021/11/14 09:11:23;;;;;;;9.60;4.60;;;22.50;43.10;;;;;;5062652;28;20526;-73
2021/11/14 09:13:49;;;;;;;7.63;4.50;;;22.50;43.20;;;;;;5062308;28;20777;-74
2021/11/14 09:16:16;;;;;;;5.50;4.07;;;22.50;42.90;;;;;;5063683;28;20445;-75
2021/11/14 09:18:41;;;;;;;8.80;4.40;;;22.40;43.20;;;;;;5063571;28;20488;-73
2021/11/14 09:21:08;;;;;;;9.87;4.37;;;22.50;42.90;;;;;;5063690;28;20474;-71
2021/11/14 09:23:34;;;;;;;11.20;5.05;;;22.50;43.30;;;;;;5061939;28;20404;-72
2021/11/14 09:26:00;;;;;;;6.63;4.10;;;22.50;42.50;;;;;;5062343;28;20395;-72
2021/11/14 09:28:26;;;;;;;7.90;4.32;;;22.50;42.20;;;;;;5063499;28;20418;-73
2021/11/14 09:30:53;;;;;;;6.40;4.20;;;22.40;42.40;;;;;;5063165;28;20404;-72
2021/11/14 09:33:25;;;;;;;8.80;4.07;;;22.40;42.40;;;;;;5063392;28;20470;-74
2021/11/14 09:35:52;;;;;;;8.50;4.55;;;22.50;42.70;;;;;;5062084;28;20438;-71
2021/11/14 09:38:18;;;;;;;8.02;4.10;;;22.50;42.50;;;;;;5061808;28;20402;-73
2021/11/14 09:40:44;;;;;;;6.90;4.37;;;22.50;42.30;;;;;;5061668;28;20491;-73
2021/11/14 09:43:10;;;;;;;7.75;4.70;;;22.50;41.90;;;;;;5063226;28;20390;-73
2021/11/14 09:45:37;;;;;;;5.90;4.20;;;22.40;41.90;;;;;;5063117;28;20407;-73
2021/11/14 09:48:04;;;;;;;5.25;4.00;;;22.40;41.90;;;;;;5063232;28;20384;-73
2021/11/14 09:50:30;;;;;;;7.25;3.80;;;22.40;42.20;;;;;;5063379;28;20456;-72
2021/11/14 09:52:57;;;;;;;6.78;4.00;;;22.50;42.00;;;;;;5063301;28;20390;-70
2021/11/14 09:55:24;;;;;;;6.80;4.63;;;22.50;41.90;;;;;;5062946;28;20427;-72
2021/11/14 09:57:51;;;;;;;5.55;4.32;;;22.50;41.40;;;;;;5063201;28;20397;-71
2021/11/14 10:00:20;;;;;;;5.55;4.30;;;22.40;41.60;;;;;;5061687;28;20564;-71
2021/11/14 10:02:47;;;;;;;5.50;4.00;;;22.40;41.50;;;;;;5061599;28;20442;-74
2021/11/14 10:05:14;;;;;;;5.20;3.80;;;22.40;41.90;;;;;;5063071;28;20396;-73
2021/11/14 10:07:52;;;;;;;4.45;3.85;;;22.50;41.80;;;;;;5061590;28;20384;-73
2021/11/14 10:10:18;;;;;;;5.55;3.90;;;22.50;41.80;;;;;;5062945;28;20494;-72
2021/11/14 10:12:43;;;;;;;5.68;4.00;;;22.40;41.50;;;;;;5062982;28;20459;-72
2021/11/14 10:15:15;;;;;;;6.25;4.10;;;22.40;41.40;;;;;;5061598;28;20422;-73
2021/11/14 10:17:47;;;;;;;4.82;4.13;;;22.40;41.40;;;;;;5061803;28;20395;-71
2021/11/14 10:20:22;;;;;;;5.15;3.97;;;22.40;41.70;;;;;;5061373;28;21071;-72
2021/11/14 10:22:51;;;;;;;6.53;3.73;;;22.40;41.60;;;;;;5061590;28;20501;-72
2021/11/14 10:25:17;;;;;;;5.13;3.45;;;22.40;41.40;;;;;;5061156;28;20395;-72
2021/11/14 10:27:48;;;;;;;4.90;4.40;;;22.40;41.40;;;;;;5061322;28;20388;-71
2021/11/14 10:30:14;;;;;;;4.75;4.18;;;22.40;41.20;;;;;;5062510;28;20392;-72
2021/11/14 10:32:40;;;;;;;5.03;4.10;;;22.30;41.20;;;;;;5061481;28;20388;-74
2021/11/14 10:35:07;;;;;;;4.80;3.63;;;22.30;41.40;;;;;;5062627;28;20416;-74
2021/11/14 10:37:42;;;;;;;4.63;3.70;;;22.40;41.40;;;;;;5062841;28;20372;-70
2021/11/14 10:40:20;;;;;;;5.50;4.17;;;22.40;41.40;;;;;;5062703;28;20402;-72
2021/11/14 10:42:50;;;;;;;5.97;4.43;;;22.40;41.20;;;;;;5061070;28;20556;-72
2021/11/14 10:45:16;;;;;;;5.15;3.60;;;22.30;41.00;;;;;;5062596;28;20387;-71
2021/11/14 10:47:43;;;;;;;5.05;3.95;;;22.30;41.10;;;;;;5062774;28;20873;-72
2021/11/14 10:50:13;;;;;;;4.53;3.70;;;22.30;41.50;;;;;;5063698;28;20391;-74
2021/11/14 10:52:54;;;;;;;4.78;3.58;;;22.30;41.30;;;;;;5066418;28;20524;-74
2021/11/14 10:55:22;;;;;;;4.53;3.60;;;22.40;41.30;;;;;;5066551;28;20921;-72
2021/11/14 10:57:49;;;;;;;5.07;3.90;;;22.30;41.20;;;;;;5066476;28;20395;-73
2021/11/14 11:00:17;;;;;;;4.75;4.18;;;22.30;40.80;;;;;;5066282;28;20395;-73
2021/11/14 11:02:46;;;;;;;4.97;3.83;;;22.30;40.90;;;;;;5066439;28;20379;-73
2021/11/14 11:05:16;;;;;;;4.90;3.80;;;22.20;41.30;;;;;;5066396;28;20434;-72
2021/11/14 11:08:11;;;;;;;4.28;3.80;;;22.30;41.20;;;;;;5066516;28;20388;-73
2021/11/14 11:10:44;;;;;;;5.82;4.00;;;22.30;41.20;;;;;;5063879;28;20392;-72
2021/11/14 11:13:12;;;;;;;5.07;4.00;;;22.30;40.70;;;;;;5066575;28;20427;-72
2021/11/14 11:15:49;;;;;;;4.40;3.50;;;22.30;41.00;;;;;;5065904;28;20916;-73
2021/11/14 11:18:17;;;;;;;4.50;3.60;;;22.20;40.80;;;;;;5065952;28;20402;-71
2021/11/14 11:20:48;;;;;;;4.32;3.45;;;22.20;41.20;;;;;;5065857;28;20395;-73
2021/11/14 11:23:16;;;;;;;3.85;3.45;;;22.30;41.20;;;;;;5065594;28;20403;-72
2021/11/14 11:25:48;;;;;;;4.43;3.67;;;22.30;41.10;;;;;;5065786;28;20388;-71
2021/11/14 11:28:28;;;;;;;4.80;3.73;;;22.30;41.10;;;;;;5064533;28;20431;-73
2021/11/14 11:31:12;;;;;;;4.43;3.83;;;22.20;40.90;;;;;;5064353;28;20396;-73
2021/11/14 11:33:43;;;;;;;3.95;3.45;;;22.20;40.90;;;;;;5065790;28;20986;-73
2021/11/14 11:36:11;;;;;;;4.20;3.60;;;22.20;41.20;;;;;;5064304;28;20479;-73
2021/11/14 11:38:43;;;;;;;4.10;3.70;;;22.20;41.10;;;;;;5065648;28;20471;-72
2021/11/14 11:41:10;;;;;;;4.03;3.42;;;22.30;41.10;;;;;;5065598;28;20396;-71
2021/11/14 11:43:36;;;;;;;5.32;4.28;;;22.20;41.00;;;;;;5065814;28;20395;-74
2021/11/14 11:46:07;;;;;;;4.05;3.55;;;22.20;40.80;;;;;;5065265;28;20392;-73
2021/11/14 11:48:48;;;;;;;5.68;4.38;;;22.20;40.80;;;;;;5065231;28;20384;-74
2021/11/14 11:51:29;;;;;;;9.43;5.67;;;22.20;40.90;;;;;;5065064;28;20705;-73
2021/11/14 11:54:02;;;;;;;9.48;5.57;;;22.20;40.70;;;;;;5059480;28;20411;-75
2021/11/14 11:56:39;;;;;;;8.00;5.70;;;22.20;41.90;;;;;;5063752;28;20885;-73
2021/11/14 11:59:31;;;;;;;9.07;5.60;;;22.20;41.30;;;;;;5065361;28;20395;-75
2021/11/14 12:02:04;;;;;;;13.05;6.80;;;22.30;42.10;;;;;;5056275;28;21060;-70
2021/11/14 12:04:41;;;;;;;12.63;6.07;;;22.30;43.20;;;;;;5080262;28;20392;-75
2021/11/14 12:07:12;;;;;;;11.30;5.80;;;22.40;43.70;;;;;;5065405;28;21051;-74
2021/11/14 12:09:44;;;;;;;11.02;6.70;;;22.50;43.70;;;;;;5063807;28;20413;-70
2021/11/14 12:12:28;;;;;;;10.75;6.13;;;22.50;43.20;;;;;;5063834;28;20396;-74
2021/11/14 12:15:14;;;;;;;11.25;6.10;;;22.50;43.30;;;;;;5062475;28;20422;-72
2021/11/14 12:17:52;;;;;;;30.92;16.80;;;22.50;44.30;;;;;;5065764;28;20391;-73
2021/11/14 12:20:23;;;;;;;29.92;13.38;;;22.50;43.70;;;;;;5064373;28;20802;-74
2021/11/14 12:22:52;;;;;;;25.08;12.95;;;22.60;44.70;;;;;;5061426;28;20434;-78
2021/11/14 12:25:24;;;;;;;28.55;15.30;;;22.70;43.80;;;;;;5062049;28;20520;-73
2021/11/14 12:28:06;;;;;;;168.75;72.60;;;22.70;44.00;;;;;;5063622;28;20418;-70
2021/11/14 12:30:35;;;;;;;84.53;40.63;;;22.80;45.00;;;;;;5063440;28;20406;-70
2021/11/14 12:33:01;;;;;;;85.20;39.20;;;22.80;45.50;;;;;;5063668;28;20415;-70
2021/11/14 12:35:37;;;;;;;82.25;36.80;;;22.90;45.80;;;;;;5063205;28;20447;-74
2021/11/14 12:38:06;;;;;;;66.57;32.97;;;23.00;45.40;;;;;;5064326;28;20404;-72
2021/11/14 12:40:37;;;;;;;74.32;36.20;;;23.10;44.40;;;;;;5063141;28;20507;-72
2021/11/14 12:43:19;;;;;;;72.03;33.42;;;23.20;45.90;;;;;;5063536;28;20379;-71
2021/11/14 12:45:51;;;;;;;70.75;33.20;;;23.20;45.90;;;;;;5063356;28;20502;-70
2021/11/14 12:48:19;;;;;;;67.65;32.35;;;23.20;46.20;;;;;;5064600;28;20737;-70